Time;durP1;ratioP1;P1;durP2;ratioP2;P2;SDS_P1;SDS_P2;PMS_P1;PMS_P2;Temp;Humidity;BMP_temperature;BMP_pressure;BME280_temperature;BME280_humidity;BME280_pressure;Samples;Min_cycle;Max_cycle;Signal;HPM_P1;HPM_P2
2022/06/06 00:06:20;;;;;;;1.63;1.43;;;19.10;98.10;;;;;;21077607;28;20236;-63
2022/06/06 00:16:22;;;;;;;1.90;1.50;;;19.10;98.20;;;;;;21077324;28;20230;-63
2022/06/06 00:26:23;;;;;;;1.70;1.60;;;19.10;98.30;;;;;;21076920;28;20237;-63
2022/06/06 00:36:25;;;;;;;9.83;2.33;;;19.10;98.40;;;;;;21076488;28;20272;-64
2022/06/06 00:46:28;;;;;;;5.70;1.90;;;19.10;98.40;;;;;;21076043;28;20231;-61
2022/06/06 00:56:39;;;;;;;2.70;1.83;;;19.10;98.50;;;;;;21085053;28;20211;-62
2022/06/06 01:06:44;;;;;;;5.30;1.90;;;19.10;98.40;;;;;;21090260;28;20573;-62
2022/06/06 01:17:03;;;;;;;2.10;1.90;;;19.10;98.50;;;;;;21090103;28;20612;-65
2022/06/06 01:27:37;;;;;;;4.27;2.00;;;19.10;98.50;;;;;;21089025;28;20239;-64
2022/06/06 01:37:41;;;;;;;3.63;2.10;;;19.10;98.50;;;;;;21087998;28;20213;-62
2022/06/06 01:47:49;;;;;;;2.67;2.10;;;19.00;98.40;;;;;;21087185;28;20238;-62
2022/06/06 01:57:53;;;;;;;2.50;2.17;;;18.90;98.50;;;;;;21088196;28;20240;-62
2022/06/06 02:07:55;;;;;;;4.00;2.30;;;18.70;98.60;;;;;;21086520;28;20262;-62
2022/06/06 02:17:57;;;;;;;2.50;2.30;;;18.70;98.90;;;;;;21067151;28;20206;-66
2022/06/06 02:27:59;;;;;;;5.67;2.30;;;18.70;98.90;;;;;;21083996;28;20245;-64
2022/06/06 02:38:01;;;;;;;2.53;2.30;;;18.60;99.00;;;;;;21083296;28;20228;-66
2022/06/06 02:48:03;;;;;;;2.60;2.40;;;18.50;99.10;;;;;;21082199;28;20230;-64
2022/06/06 02:58:05;;;;;;;3.60;2.80;;;18.40;99.30;;;;;;21081880;28;20617;-62
2022/06/06 03:08:28;;;;;;;5.30;3.33;;;18.30;99.30;;;;;;21080711;28;20235;-64
2022/06/06 03:29:24;;;;;;;6.20;3.27;;;18.20;99.70;;;;;;21079242;28;20298;-63
2022/06/06 03:40:13;;;;;;;5.90;3.73;;;18.10;99.70;;;;;;21079314;28;20256;-66
2022/06/06 03:50:30;;;;;;;5.60;3.97;;;18.10;99.80;;;;;;21069852;28;20234;-67
2022/06/06 04:00:33;;;;;;;3.80;3.40;;;18.10;99.90;;;;;;21060187;28;20213;-63
2022/06/06 04:10:53;;;;;;;4.60;3.73;;;18.10;99.90;;;;;;21078059;28;20229;-63
2022/06/06 04:21:46;;;;;;;6.43;4.33;;;18.20;99.90;;;;;;21077451;28;20206;-63
2022/06/06 04:32:21;;;;;;;7.40;3.73;;;18.30;99.90;;;;;;21031480;28;20635;-62
2022/06/06 04:42:47;;;;;;;4.47;3.87;;;18.40;99.90;;;;;;21092693;28;20234;-62
2022/06/06 04:52:54;;;;;;;8.00;4.10;;;18.50;99.90;;;;;;21091426;28;20237;-63
2022/06/06 05:02:56;;;;;;;7.53;4.57;;;18.60;99.90;;;;;;21090807;28;20234;-63
2022/06/06 05:13:15;;;;;;;7.97;4.40;;;18.70;99.90;;;;;;21090664;28;20222;-63
2022/06/06 05:23:41;;;;;;;5.40;4.47;;;18.90;99.90;;;;;;21088811;28;20287;-68
2022/06/06 05:33:59;;;;;;;5.30;4.30;;;19.00;99.80;;;;;;21088433;28;20198;-70
2022/06/06 05:44:19;;;;;;;5.00;4.33;;;19.10;99.60;;;;;;21086588;28;20238;-66
2022/06/06 05:54:36;;;;;;;5.00;4.50;;;19.20;99.50;;;;;;21087056;28;20615;-68
2022/06/06 06:04:44;;;;;;;7.20;4.80;;;19.30;99.50;;;;;;21085903;28;20279;-66
2022/06/06 06:15:03;;;;;;;7.53;4.90;;;19.50;99.50;;;;;;21085344;28;20212;-67
2022/06/06 06:25:06;;;;;;;7.63;5.20;;;19.60;99.10;;;;;;21084452;28;20249;-65
2022/06/06 06:35:24;;;;;;;6.53;4.80;;;19.70;98.70;;;;;;21083454;28;20257;-64
2022/06/06 06:45:34;;;;;;;6.10;4.40;;;19.80;98.40;;;;;;21064402;28;20228;-64
2022/06/06 06:55:52;;;;;;;5.53;4.50;;;20.10;98.10;;;;;;21082218;28;20263;-65
2022/06/06 07:16:58;;;;;;;5.73;4.13;;;20.60;97.20;;;;;;20839140;28;20214;-64
2022/06/06 07:27:00;;;;;;;6.97;4.80;;;20.80;96.50;;;;;;21080103;28;20241;-68
2022/06/06 07:37:11;;;;;;;6.10;4.50;;;20.80;96.20;;;;;;21079193;28;20721;-68
2022/06/06 07:47:37;;;;;;;6.63;4.20;;;20.80;96.00;;;;;;21078624;28;20241;-65
2022/06/06 07:57:56;;;;;;;5.20;4.70;;;20.70;95.90;;;;;;21078647;28;20558;-64
2022/06/06 08:08:19;;;;;;;5.37;4.60;;;20.70;95.90;;;;;;21090930;28;20236;-65
2022/06/06 08:19:07;;;;;;;12.93;5.50;;;20.90;95.80;;;;;;21094510;28;20699;-65
2022/06/06 08:29:10;;;;;;;4.97;3.90;;;21.20;95.40;;;;;;21054953;28;20241;-67
2022/06/06 08:39:38;;;;;;;7.37;3.83;;;21.20;94.90;;;;;;21093152;28;20206;-63
2022/06/06 09:00:03;;;;;;;5.03;3.50;;;21.20;93.80;;;;;;21091219;28;20600;-65
2022/06/06 09:10:33;;;;;;;8.77;3.70;;;21.30;93.40;;;;;;21090538;28;20238;-63
2022/06/06 09:20:47;;;;;;;5.17;2.70;;;21.60;93.00;;;;;;21088289;28;20210;-61
2022/06/06 09:31:04;;;;;;;4.40;3.63;;;21.70;91.40;;;;;;21088286;28;20248;-71
2022/06/06 09:41:41;;;;;;;5.23;2.70;;;22.00;90.30;;;;;;21088321;28;20288;-66
2022/06/06 09:51:43;;;;;;;6.03;2.80;;;22.10;89.60;;;;;;21048709;28;20266;-67
2022/06/06 10:01:48;;;;;;;2.87;2.47;;;22.10;88.50;;;;;;21068231;28;20232;-71
2022/06/06 10:12:08;;;;;;;4.07;2.40;;;22.20;86.90;;;;;;21085616;28;20211;-70
2022/06/06 10:22:56;;;;;;;2.83;2.57;;;22.40;86.20;;;;;;21084314;28;20256;-70
2022/06/06 10:33:29;;;;;;;4.33;2.60;;;22.60;85.40;;;;;;21070269;28;20246;-66
2022/06/06 10:43:53;;;;;;;4.40;2.40;;;22.90;83.60;;;;;;21064858;28;20277;-67
2022/06/06 10:54:05;;;;;;;2.80;2.23;;;23.10;81.20;;;;;;21082646;28;20217;-70
2022/06/06 11:04:16;;;;;;;3.13;2.10;;;23.30;78.40;;;;;;21081296;28;20241;-68
2022/06/06 11:14:27;;;;;;;3.40;2.40;;;23.30;76.20;;;;;;21080820;28;20206;-70
2022/06/06 11:25:05;;;;;;;4.27;2.40;;;23.40;74.20;;;;;;21081602;28;20237;-68
2022/06/06 11:35:40;;;;;;;3.90;2.10;;;23.60;72.80;;;;;;21061325;28;20210;-64
2022/06/06 11:46:26;;;;;;;2.13;1.93;;;23.60;71.70;;;;;;21078533;28;20235;-66
2022/06/06 11:56:43;;;;;;;2.40;2.20;;;23.40;70.50;;;;;;20824672;28;20731;-68
2022/06/06 12:06:59;;;;;;;7.13;3.20;;;23.10;74.50;;;;;;21078916;28;20256;-70
2022/06/06 12:17:35;;;;;;;4.30;2.30;;;23.20;76.70;;;;;;21080664;28;20210;-69
2022/06/06 12:27:58;;;;;;;4.90;2.60;;;23.40;78.00;;;;;;21077181;28;20713;-71
2022/06/06 12:38:11;;;;;;;5.10;2.90;;;23.10;78.90;;;;;;21077271;28;20256;-72
2022/06/06 12:48:41;;;;;;;4.07;3.17;;;22.70;80.30;;;;;;21078949;28;20256;-70
2022/06/06 12:59:00;;;;;;;3.50;2.63;;;22.60;82.20;;;;;;21091337;28;20210;-69
2022/06/06 13:09:20;;;;;;;3.27;2.97;;;22.90;82.60;;;;;;21091098;28;20638;-70
2022/06/06 13:19:59;;;;;;;4.13;2.80;;;22.80;81.90;;;;;;21089845;28;20681;-63
2022/06/06 13:30:51;;;;;;;3.57;3.17;;;22.30;81.80;;;;;;21070868;28;20241;-63
2022/06/06 13:41:24;;;;;;;6.63;5.10;;;20.80;90.40;;;;;;21075955;28;20206;-63
2022/06/06 13:51:42;;;;;;;3.70;3.40;;;20.50;92.60;;;;;;21087347;28;20241;-63
2022/06/06 14:02:09;;;;;;;8.73;3.53;;;20.80;93.80;;;;;;21085599;28;20622;-63
2022/06/06 14:12:52;;;;;;;4.17;3.60;;;21.00;94.00;;;;;;21085524;28;20274;-66
2022/06/06 14:22:54;;;;;;;3.03;2.73;;;21.10;93.90;;;;;;21045509;28;20642;-67
2022/06/06 14:32:59;;;;;;;5.77;3.20;;;21.50;93.40;;;;;;21083928;28;20237;-65
2022/06/06 14:43:01;;;;;;;3.10;2.53;;;21.70;92.90;;;;;;21083307;28;20241;-64
2022/06/06 14:53:11;;;;;;;5.90;2.50;;;21.90;92.30;;;;;;21082584;28;20202;-61
2022/06/06 15:03:12;;;;;;;3.13;2.53;;;22.30;91.70;;;;;;21081518;28;20238;-63
2022/06/06 15:13:16;;;;;;;3.73;2.77;;;22.50;90.90;;;;;;21080732;28;20237;-63
2022/06/06 15:23:42;;;;;;;2.60;2.27;;;22.90;87.70;;;;;;21080231;28;20560;-65
2022/06/06 15:34:18;;;;;;;3.87;2.40;;;23.10;84.80;;;;;;20995815;28;20215;-63
2022/06/06 15:44:32;;;;;;;4.83;1.70;;;23.10;80.00;;;;;;20989950;28;20710;-63
2022/06/06 15:55:01;;;;;;;6.43;1.90;;;23.50;76.10;;;;;;20995109;28;20206;-64
2022/06/06 16:05:15;;;;;;;3.00;1.53;;;24.00;73.90;;;;;;20981630;28;20284;-62
2022/06/06 16:15:25;;;;;;;3.00;1.50;;;25.20;69.60;;;;;;20994155;28;20257;-62
2022/06/06 16:25:48;;;;;;;3.53;1.60;;;25.10;66.90;;;;;;21017739;28;20233;-62
2022/06/06 16:35:58;;;;;;;3.97;1.60;;;24.70;67.40;;;;;;21080220;28;20232;-63
2022/06/06 16:56:22;;;;;;;2.43;2.10;;;24.10;68.80;;;;;;21092093;28;20289;-66
2022/06/06 17:16:58;;;;;;;1.90;1.70;;;23.70;69.30;;;;;;21091910;28;20213;-63
2022/06/06 17:27:29;;;;;;;2.73;1.80;;;23.40;69.10;;;;;;21090549;28;20238;-63
2022/06/06 17:38:08;;;;;;;2.67;2.10;;;23.30;69.70;;;;;;21078438;28;20203;-63
2022/06/06 17:48:19;;;;;;;3.53;2.10;;;23.20;70.50;;;;;;21088170;28;20226;-64
2022/06/06 17:58:42;;;;;;;4.80;3.70;;;23.40;71.70;;;;;;21087305;28;20201;-63
2022/06/06 18:09:02;;;;;;;2.40;2.03;;;23.40;71.20;;;;;;21086140;28;20232;-64
2022/06/06 18:19:12;;;;;;;2.67;2.10;;;23.20;71.80;;;;;;21084430;28;20214;-62
2022/06/06 18:29:45;;;;;;;3.60;1.90;;;23.00;72.50;;;;;;21064772;28;20237;-63
2022/06/06 18:39:53;;;;;;;5.23;2.10;;;22.80;73.20;;;;;;21011911;28;20208;-63
2022/06/06 18:49:55;;;;;;;3.50;1.80;;;22.60;73.60;;;;;;21082372;28;20291;-59
2022/06/06 19:00:12;;;;;;;5.50;2.37;;;22.50;74.10;;;;;;21046366;28;20206;-59
2022/06/06 19:10:28;;;;;;;3.03;2.13;;;22.50;74.50;;;;;;20979501;28;20866;-61
2022/06/06 19:20:43;;;;;;;2.77;2.10;;;22.30;74.80;;;;;;20993978;28;20275;-60
2022/06/06 19:30:46;;;;;;;4.03;2.20;;;22.30;75.70;;;;;;21054255;28;20287;-59
2022/06/06 19:40:55;;;;;;;3.77;2.50;;;22.20;76.50;;;;;;21077018;28;20650;-59
2022/06/06 19:51:01;;;;;;;2.63;2.30;;;22.10;77.10;;;;;;21076733;28;20242;-60
2022/06/06 20:01:03;;;;;;;5.90;2.60;;;22.00;77.80;;;;;;21075340;28;20206;-59
2022/06/06 20:11:11;;;;;;;5.00;2.27;;;21.90;78.60;;;;;;21075308;28;20272;-60
2022/06/06 20:21:34;;;;;;;3.43;2.37;;;21.90;79.40;;;;;;21075799;28;20264;-62
2022/06/06 20:32:19;;;;;;;4.60;2.40;;;21.80;79.80;;;;;;21074235;28;20238;-69
2022/06/06 20:42:26;;;;;;;3.50;2.07;;;21.70;80.20;;;;;;21074166;28;20211;-60
2022/06/06 20:52:39;;;;;;;3.27;2.17;;;21.70;80.20;;;;;;21074290;28;20291;-64
2022/06/06 21:02:41;;;;;;;4.67;2.40;;;21.60;80.20;;;;;;21073359;28;20270;-60
2022/06/06 21:12:44;;;;;;;2.20;1.93;;;21.50;80.30;;;;;;21080619;28;20294;-63
2022/06/06 21:22:50;;;;;;;2.10;1.90;;;21.40;80.30;;;;;;21087424;28;20662;-62
2022/06/06 21:32:52;;;;;;;3.00;2.03;;;21.30;80.20;;;;;;21088995;28;20248;-64
2022/06/06 21:42:54;;;;;;;4.33;2.10;;;21.20;80.20;;;;;;21088593;28;20206;-63
2022/06/06 21:52:55;;;;;;;4.30;2.20;;;21.10;80.50;;;;;;21087955;28;20210;-65
2022/06/06 22:02:57;;;;;;;3.73;2.43;;;21.00;81.10;;;;;;21087766;28;20211;-63
2022/06/06 22:12:59;;;;;;;2.17;1.90;;;20.70;81.70;;;;;;21086746;28;20608;-70
2022/06/06 22:23:00;;;;;;;3.40;2.00;;;20.50;82.80;;;;;;21085170;28;20216;-65
2022/06/06 22:33:02;;;;;;;6.43;2.07;;;20.30;83.50;;;;;;21086041;28;20237;-63
2022/06/06 22:43:04;;;;;;;3.83;2.60;;;20.20;83.70;;;;;;21083914;28;20211;-62
2022/06/06 22:53:06;;;;;;;5.10;2.80;;;20.00;84.80;;;;;;21083328;28;20235;-64
2022/06/06 23:03:09;;;;;;;5.90;2.90;;;19.80;86.00;;;;;;21081900;28;20225;-62
2022/06/06 23:13:10;;;;;;;2.77;2.27;;;19.70;87.00;;;;;;21081155;28;20204;-62
2022/06/06 23:23:12;;;;;;;2.87;2.50;;;19.60;87.60;;;;;;21080539;28;20224;-62
2022/06/06 23:33:18;;;;;;;4.23;2.50;;;19.60;88.20;;;;;;21078972;28;20232;-63
2022/06/06 23:43:25;;;;;;;3.47;2.30;;;19.50;88.30;;;;;;21079224;28;20605;-63
2022/06/06 23:53:32;;;;;;;4.90;2.23;;;19.50;88.40;;;;;;21079281;28;20655;-63
